Terminal Aerodrome Forecast
Issued by NWS Cleveland, OH

Home | Current Version | Previous Version | Text Only | Print | Product List | Glossary On
Versions: 1 2 3 4 5 6 7 8 9 10 11 12 13 14 15 16 17 18 19 20
000
FTUS41 KCLE 301730
TAFCLE
TAF
KCLE 301730Z 3018/3124 22012KT 6SM -TSRA BKN045CB
      TEMPO 3018/3021 2SM -TSRA OVC025CB
     FM302300 32007KT 4SM -TSRA BR OVC035CB
     FM310300 02008KT 3SM -SHRA BR OVC015
     FM310800 03014KT 3SM -SHRA BR OVC008
     FM311500 05014KT P6SM VCSH OVC015
     FM312100 03014KT P6SM VCSH OVC025=

USA.gov is the U.S. government's official web portal to all federal, state and local government web resources and services.